sensor_id;sensor_type;location;lat;lon;timestamp;P1;durP1;ratioP1;P2;durP2;ratioP2
49876;SDS011;35771;48.978;9.294;2022-11-27T07:10:45;11.53;;;5.60;;
49876;SDS011;35771;48.978;9.294;2022-11-27T07:13:11;13.00;;;6.83;;
49876;SDS011;35771;48.978;9.294;2022-11-27T07:15:38;14.00;;;7.60;;
49876;SDS011;35771;48.978;9.294;2022-11-27T07:18:04;16.47;;;7.23;;
49876;SDS011;35771;48.978;9.294;2022-11-27T07:20:31;13.33;;;7.47;;
49876;SDS011;35771;48.978;9.294;2022-11-27T07:22:58;13.23;;;7.27;;
49876;SDS011;35771;48.978;9.294;2022-11-27T07:25:24;16.03;;;7.93;;
49876;SDS011;35771;48.978;9.294;2022-11-27T07:27:53;15.27;;;7.53;;
49876;SDS011;35771;48.978;9.294;2022-11-27T07:30:20;15.55;;;6.13;;
49876;SDS011;35771;48.978;9.294;2022-11-27T07:32:47;9.02;;;5.82;;
49876;SDS011;35771;48.978;9.294;2022-11-27T07:35:13;10.53;;;6.47;;
49876;SDS011;35771;48.978;9.294;2022-11-27T07:37:40;10.13;;;6.32;;
49876;SDS011;35771;48.978;9.294;2022-11-27T07:40:07;8.75;;;5.20;;
49876;SDS011;35771;48.978;9.294;2022-11-27T07:42:34;10.75;;;5.80;;
49876;SDS011;35771;48.978;9.294;2022-11-27T07:45:02;9.70;;;5.95;;
49876;SDS011;35771;48.978;9.294;2022-11-27T07:47:29;9.15;;;6.45;;
49876;SDS011;35771;48.978;9.294;2022-11-27T07:49:56;11.05;;;6.07;;
49876;SDS011;35771;48.978;9.294;2022-11-27T07:52:24;13.05;;;6.15;;
49876;SDS011;35771;48.978;9.294;2022-11-27T07:54:50;15.82;;;6.88;;
49876;SDS011;35771;48.978;9.294;2022-11-27T07:57:19;16.23;;;7.47;;
49876;SDS011;35771;48.978;9.294;2022-11-27T07:59:46;30.53;;;11.63;;
49876;SDS011;35771;48.978;9.294;2022-11-27T08:02:14;24.70;;;13.13;;
49876;SDS011;35771;48.978;9.294;2022-11-27T08:04:41;24.38;;;12.07;;
49876;SDS011;35771;48.978;9.294;2022-11-27T08:07:08;22.70;;;11.77;;
49876;SDS011;35771;48.978;9.294;2022-11-27T08:09:34;20.40;;;11.15;;
49876;SDS011;35771;48.978;9.294;2022-11-27T08:12:02;21.35;;;11.20;;
49876;SDS011;35771;48.978;9.294;2022-11-27T08:14:29;21.20;;;11.90;;
49876;SDS011;35771;48.978;9.294;2022-11-27T08:16:55;29.60;;;11.63;;
49876;SDS011;35771;48.978;9.294;2022-11-27T08:19:25;25.13;;;13.10;;
49876;SDS011;35771;48.978;9.294;2022-11-27T08:21:52;29.05;;;13.07;;
49876;SDS011;35771;48.978;9.294;2022-11-27T08:24:20;24.33;;;13.27;;
49876;SDS011;35771;48.978;9.294;2022-11-27T08:26:47;25.42;;;13.30;;
49876;SDS011;35771;48.978;9.294;2022-11-27T08:29:13;25.85;;;13.15;;
49876;SDS011;35771;48.978;9.294;2022-11-27T08:31:40;22.48;;;12.40;;
49876;SDS011;35771;48.978;9.294;2022-11-27T08:34:07;23.65;;;13.27;;
49876;SDS011;35771;48.978;9.294;2022-11-27T08:36:35;21.65;;;12.15;;
49876;SDS011;35771;48.978;9.294;2022-11-27T08:39:01;25.20;;;13.63;;
49876;SDS011;35771;48.978;9.294;2022-11-27T08:41:28;15.98;;;10.27;;
49876;SDS011;35771;48.978;9.294;2022-11-27T08:46:42;23.83;;;10.75;;
49876;SDS011;35771;48.978;9.294;2022-11-27T08:49:09;19.90;;;10.05;;
49876;SDS011;35771;48.978;9.294;2022-11-27T08:51:37;21.33;;;12.10;;
49876;SDS011;35771;48.978;9.294;2022-11-27T08:54:04;25.40;;;14.63;;
49876;SDS011;35771;48.978;9.294;2022-11-27T08:56:31;34.28;;;15.15;;
49876;SDS011;35771;48.978;9.294;2022-11-27T08:58:58;31.52;;;15.57;;
49876;SDS011;35771;48.978;9.294;2022-11-27T09:01:25;28.83;;;14.23;;
49876;SDS011;35771;48.978;9.294;2022-11-27T09:03:53;29.15;;;13.48;;
49876;SDS011;35771;48.978;9.294;2022-11-27T09:06:21;32.90;;;14.75;;
49876;SDS011;35771;48.978;9.294;2022-11-27T09:08:50;39.75;;;13.75;;
49876;SDS011;35771;48.978;9.294;2022-11-27T09:11:17;31.45;;;11.95;;
49876;SDS011;35771;48.978;9.294;2022-11-27T09:13:45;21.05;;;11.63;;
49876;SDS011;35771;48.978;9.294;2022-11-27T09:16:14;24.85;;;12.50;;
49876;SDS011;35771;48.978;9.294;2022-11-27T09:18:42;23.85;;;13.30;;
49876;SDS011;35771;48.978;9.294;2022-11-27T09:21:10;22.80;;;12.13;;
49876;SDS011;35771;48.978;9.294;2022-11-27T09:23:38;18.42;;;9.55;;
49876;SDS011;35771;48.978;9.294;2022-11-27T09:28:49;16.13;;;8.65;;
49876;SDS011;35771;48.978;9.294;2022-11-27T09:31:17;15.75;;;8.20;;
49876;SDS011;35771;48.978;9.294;2022-11-27T09:33:44;18.20;;;10.00;;
49876;SDS011;35771;48.978;9.294;2022-11-27T09:36:12;17.23;;;9.32;;
49876;SDS011;35771;48.978;9.294;2022-11-27T09:38:39;22.98;;;11.88;;
49876;SDS011;35771;48.978;9.294;2022-11-27T09:41:12;25.10;;;12.73;;
49876;SDS011;35771;48.978;9.294;2022-11-27T09:43:50;24.30;;;11.63;;
49876;SDS011;35771;48.978;9.294;2022-11-27T09:46:23;24.17;;;12.18;;
49876;SDS011;35771;48.978;9.294;2022-11-27T09:48:56;29.23;;;12.43;;
49876;SDS011;35771;48.978;9.294;2022-11-27T09:51:26;28.77;;;12.30;;
49876;SDS011;35771;48.978;9.294;2022-11-27T09:53:59;22.35;;;9.70;;
49876;SDS011;35771;48.978;9.294;2022-11-27T09:56:30;11.90;;;7.32;;
49876;SDS011;35771;48.978;9.294;2022-11-27T09:59:02;18.50;;;9.23;;
49876;SDS011;35771;48.978;9.294;2022-11-27T10:01:37;16.35;;;8.05;;
49876;SDS011;35771;48.978;9.294;2022-11-27T10:04:04;15.77;;;8.30;;
49876;SDS011;35771;48.978;9.294;2022-11-27T10:06:31;26.30;;;11.38;;
49876;SDS011;35771;48.978;9.294;2022-11-27T10:09:09;18.27;;;8.98;;
49876;SDS011;35771;48.978;9.294;2022-11-27T10:11:43;19.70;;;8.57;;
49876;SDS011;35771;48.978;9.294;2022-11-27T10:14:26;16.13;;;8.27;;
49876;SDS011;35771;48.978;9.294;2022-11-27T10:17:02;15.63;;;8.52;;
49876;SDS011;35771;48.978;9.294;2022-11-27T10:19:38;14.13;;;7.40;;
49876;SDS011;35771;48.978;9.294;2022-11-27T10:22:14;15.63;;;6.63;;
49876;SDS011;35771;48.978;9.294;2022-11-27T10:24:49;14.10;;;7.25;;
49876;SDS011;35771;48.978;9.294;2022-11-27T10:27:27;14.20;;;6.95;;
49876;SDS011;35771;48.978;9.294;2022-11-27T10:30:00;9.82;;;5.32;;
49876;SDS011;35771;48.978;9.294;2022-11-27T10:32:29;9.73;;;4.68;;
49876;SDS011;35771;48.978;9.294;2022-11-27T10:35:00;11.10;;;5.07;;
49876;SDS011;35771;48.978;9.294;2022-11-27T10:37:29;11.35;;;4.78;;
49876;SDS011;35771;48.978;9.294;2022-11-27T10:40:05;8.85;;;5.32;;
49876;SDS011;35771;48.978;9.294;2022-11-27T10:42:43;9.30;;;5.53;;
49876;SDS011;35771;48.978;9.294;2022-11-27T10:45:18;9.55;;;5.85;;
49876;SDS011;35771;48.978;9.294;2022-11-27T10:47:47;9.38;;;5.38;;
49876;SDS011;35771;48.978;9.294;2022-11-27T10:50:15;12.05;;;6.40;;
49876;SDS011;35771;48.978;9.294;2022-11-27T10:52:44;13.57;;;6.87;;
49876;SDS011;35771;48.978;9.294;2022-11-27T10:55:16;12.00;;;7.18;;
49876;SDS011;35771;48.978;9.294;2022-11-27T10:57:49;10.68;;;6.45;;
49876;SDS011;35771;48.978;9.294;2022-11-27T11:00:29;10.43;;;5.20;;
49876;SDS011;35771;48.978;9.294;2022-11-27T11:02:59;5.75;;;3.75;;
49876;SDS011;35771;48.978;9.294;2022-11-27T11:05:27;7.18;;;3.58;;
49876;SDS011;35771;48.978;9.294;2022-11-27T11:07:56;6.07;;;3.40;;
49876;SDS011;35771;48.978;9.294;2022-11-27T11:10:25;8.75;;;4.22;;
49876;SDS011;35771;48.978;9.294;2022-11-27T11:13:13;9.57;;;4.43;;
49876;SDS011;35771;48.978;9.294;2022-11-27T11:15:46;7.35;;;4.18;;
49876;SDS011;35771;48.978;9.294;2022-11-27T11:18:15;5.75;;;3.35;;
49876;SDS011;35771;48.978;9.294;2022-11-27T11:20:42;6.65;;;3.40;;
49876;SDS011;35771;48.978;9.294;2022-11-27T11:23:17;6.80;;;3.33;;
49876;SDS011;35771;48.978;9.294;2022-11-27T11:25:47;5.93;;;3.03;;
49876;SDS011;35771;48.978;9.294;2022-11-27T11:28:15;5.75;;;2.72;;
49876;SDS011;35771;48.978;9.294;2022-11-27T11:30:52;6.25;;;3.75;;
49876;SDS011;35771;48.978;9.294;2022-11-27T11:33:22;4.95;;;3.03;;
49876;SDS011;35771;48.978;9.294;2022-11-27T11:35:50;7.63;;;2.85;;
49876;SDS011;35771;48.978;9.294;2022-11-27T11:38:23;4.15;;;2.05;;
49876;SDS011;35771;48.978;9.294;2022-11-27T11:40:58;6.00;;;2.55;;
49876;SDS011;35771;48.978;9.294;2022-11-27T11:43:27;4.53;;;1.73;;
49876;SDS011;35771;48.978;9.294;2022-11-27T11:46:05;6.35;;;2.45;;
49876;SDS011;35771;48.978;9.294;2022-11-27T11:48:50;2.88;;;2.13;;
49876;SDS011;35771;48.978;9.294;2022-11-27T11:51:19;3.83;;;1.67;;
49876;SDS011;35771;48.978;9.294;2022-11-27T11:53:55;2.30;;;1.48;;
49876;SDS011;35771;48.978;9.294;2022-11-27T11:56:32;2.75;;;1.50;;
49876;SDS011;35771;48.978;9.294;2022-11-27T11:59:03;1.52;;;1.20;;
49876;SDS011;35771;48.978;9.294;2022-11-27T12:01:43;3.90;;;1.50;;
49876;SDS011;35771;48.978;9.294;2022-11-27T12:04:26;3.22;;;1.60;;
49876;SDS011;35771;48.978;9.294;2022-11-27T12:07:07;3.47;;;1.05;;
49876;SDS011;35771;48.978;9.294;2022-11-27T12:09:45;2.20;;;1.30;;
49876;SDS011;35771;48.978;9.294;2022-11-27T12:12:25;1.95;;;1.15;;
49876;SDS011;35771;48.978;9.294;2022-11-27T12:15:01;3.20;;;1.42;;
49876;SDS011;35771;48.978;9.294;2022-11-27T12:17:47;4.05;;;1.30;;
49876;SDS011;35771;48.978;9.294;2022-11-27T12:20:23;1.73;;;1.20;;
49876;SDS011;35771;48.978;9.294;2022-11-27T12:23:04;2.25;;;1.02;;
49876;SDS011;35771;48.978;9.294;2022-11-27T12:25:52;3.15;;;1.58;;
49876;SDS011;35771;48.978;9.294;2022-11-27T12:28:30;1.80;;;1.20;;
49876;SDS011;35771;48.978;9.294;2022-11-27T12:31:08;5.82;;;1.42;;
49876;SDS011;35771;48.978;9.294;2022-11-27T12:33:52;3.70;;;1.30;;
49876;SDS011;35771;48.978;9.294;2022-11-27T12:36:29;2.58;;;1.38;;
49876;SDS011;35771;48.978;9.294;2022-11-27T12:39:13;3.42;;;1.83;;
49876;SDS011;35771;48.978;9.294;2022-11-27T12:41:59;4.65;;;1.60;;
49876;SDS011;35771;48.978;9.294;2022-11-27T12:44:41;4.35;;;1.52;;
49876;SDS011;35771;48.978;9.294;2022-11-27T12:47:16;1.83;;;1.10;;
49876;SDS011;35771;48.978;9.294;2022-11-27T12:49:49;3.72;;;1.80;;
49876;SDS011;35771;48.978;9.294;2022-11-27T12:52:21;3.75;;;1.52;;
49876;SDS011;35771;48.978;9.294;2022-11-27T12:54:52;3.63;;;1.30;;
49876;SDS011;35771;48.978;9.294;2022-11-27T12:57:26;2.17;;;1.33;;
49876;SDS011;35771;48.978;9.294;2022-11-27T12:59:59;4.75;;;1.65;;
49876;SDS011;35771;48.978;9.294;2022-11-27T13:02:33;1.85;;;1.17;;
49876;SDS011;35771;48.978;9.294;2022-11-27T13:05:04;1.85;;;1.20;;
49876;SDS011;35771;48.978;9.294;2022-11-27T13:07:36;3.90;;;1.40;;
49876;SDS011;35771;48.978;9.294;2022-11-27T13:10:15;2.45;;;1.40;;
49876;SDS011;35771;48.978;9.294;2022-11-27T13:12:49;2.35;;;1.40;;
49876;SDS011;35771;48.978;9.294;2022-11-27T13:15:23;2.22;;;1.23;;
49876;SDS011;35771;48.978;9.294;2022-11-27T13:17:54;7.80;;;1.33;;
49876;SDS011;35771;48.978;9.294;2022-11-27T13:20:31;2.95;;;1.00;;
49876;SDS011;35771;48.978;9.294;2022-11-27T13:23:01;2.97;;;1.00;;
49876;SDS011;35771;48.978;9.294;2022-11-27T13:25:27;4.30;;;1.38;;
49876;SDS011;35771;48.978;9.294;2022-11-27T13:27:59;2.50;;;1.00;;
49876;SDS011;35771;48.978;9.294;2022-11-27T13:30:30;2.75;;;1.10;;
49876;SDS011;35771;48.978;9.294;2022-11-27T13:33:00;1.95;;;1.15;;
49876;SDS011;35771;48.978;9.294;2022-11-27T13:35:39;2.70;;;1.35;;
49876;SDS011;35771;48.978;9.294;2022-11-27T13:38:09;2.58;;;1.15;;
49876;SDS011;35771;48.978;9.294;2022-11-27T13:40:38;1.15;;;0.90;;
49876;SDS011;35771;48.978;9.294;2022-11-27T13:43:15;3.22;;;1.20;;
49876;SDS011;35771;48.978;9.294;2022-11-27T13:45:47;1.17;;;0.77;;
49876;SDS011;35771;48.978;9.294;2022-11-27T13:48:27;2.15;;;1.10;;
49876;SDS011;35771;48.978;9.294;2022-11-27T13:50:58;7.22;;;1.40;;
49876;SDS011;35771;48.978;9.294;2022-11-27T13:53:29;3.80;;;0.90;;
49876;SDS011;35771;48.978;9.294;2022-11-27T13:56:00;1.90;;;1.20;;
49876;SDS011;35771;48.978;9.294;2022-11-27T13:58:28;2.33;;;1.05;;
49876;SDS011;35771;48.978;9.294;2022-11-27T14:00:56;1.42;;;1.00;;
49876;SDS011;35771;48.978;9.294;2022-11-27T14:03:23;1.20;;;1.08;;
49876;SDS011;35771;48.978;9.294;2022-11-27T14:05:51;1.23;;;1.10;;
49876;SDS011;35771;48.978;9.294;2022-11-27T14:08:20;1.75;;;1.00;;
49876;SDS011;35771;48.978;9.294;2022-11-27T14:10:50;1.13;;;0.95;;
49876;SDS011;35771;48.978;9.294;2022-11-27T14:13:19;3.92;;;1.40;;
49876;SDS011;35771;48.978;9.294;2022-11-27T14:15:55;1.83;;;1.10;;
49876;SDS011;35771;48.978;9.294;2022-11-27T14:18:25;1.52;;;0.93;;
49876;SDS011;35771;48.978;9.294;2022-11-27T14:20:55;2.40;;;1.00;;
49876;SDS011;35771;48.978;9.294;2022-11-27T14:23:27;1.05;;;0.80;;
49876;SDS011;35771;48.978;9.294;2022-11-27T14:26:02;2.67;;;1.50;;
49876;SDS011;35771;48.978;9.294;2022-11-27T14:28:31;1.63;;;1.08;;
49876;SDS011;35771;48.978;9.294;2022-11-27T14:31:00;1.35;;;1.00;;
49876;SDS011;35771;48.978;9.294;2022-11-27T14:33:28;1.98;;;0.98;;
49876;SDS011;35771;48.978;9.294;2022-11-27T14:38:27;2.45;;;0.70;;
49876;SDS011;35771;48.978;9.294;2022-11-27T14:43:32;3.83;;;1.13;;
49876;SDS011;35771;48.978;9.294;2022-11-27T14:45:59;1.15;;;1.02;;
49876;SDS011;35771;48.978;9.294;2022-11-27T14:48:28;5.30;;;1.23;;
49876;SDS011;35771;48.978;9.294;2022-11-27T14:50:57;3.67;;;1.10;;
49876;SDS011;35771;48.978;9.294;2022-11-27T14:53:25;4.10;;;1.58;;
49876;SDS011;35771;48.978;9.294;2022-11-27T14:55:56;3.50;;;1.98;;
49876;SDS011;35771;48.978;9.294;2022-11-27T14:58:24;1.70;;;1.15;;
49876;SDS011;35771;48.978;9.294;2022-11-27T15:00:54;1.55;;;1.02;;
49876;SDS011;35771;48.978;9.294;2022-11-27T15:03:23;1.27;;;1.13;;
49876;SDS011;35771;48.978;9.294;2022-11-27T15:05:56;3.00;;;1.35;;
49876;SDS011;35771;48.978;9.294;2022-11-27T15:08:24;2.33;;;1.23;;
49876;SDS011;35771;48.978;9.294;2022-11-27T15:10:53;2.90;;;1.02;;
49876;SDS011;35771;48.978;9.294;2022-11-27T15:13:22;1.27;;;0.93;;
49876;SDS011;35771;48.978;9.294;2022-11-27T15:15:52;1.92;;;1.23;;
49876;SDS011;35771;48.978;9.294;2022-11-27T15:18:22;1.75;;;1.10;;
49876;SDS011;35771;48.978;9.294;2022-11-27T15:20:50;2.22;;;1.30;;
49876;SDS011;35771;48.978;9.294;2022-11-27T15:23:18;2.20;;;1.42;;
49876;SDS011;35771;48.978;9.294;2022-11-27T15:25:49;4.53;;;1.38;;
49876;SDS011;35771;48.978;9.294;2022-11-27T15:28:29;2.63;;;1.38;;
49876;SDS011;35771;48.978;9.294;2022-11-27T15:30:59;3.67;;;1.42;;
49876;SDS011;35771;48.978;9.294;2022-11-27T15:33:27;3.20;;;1.17;;
49876;SDS011;35771;48.978;9.294;2022-11-27T15:36:07;2.33;;;1.63;;
49876;SDS011;35771;48.978;9.294;2022-11-27T15:38:41;3.63;;;1.58;;
49876;SDS011;35771;48.978;9.294;2022-11-27T15:41:19;3.40;;;1.60;;
49876;SDS011;35771;48.978;9.294;2022-11-27T15:43:49;3.92;;;1.55;;
49876;SDS011;35771;48.978;9.294;2022-11-27T15:46:21;2.08;;;1.50;;
49876;SDS011;35771;48.978;9.294;2022-11-27T15:48:51;2.38;;;1.50;;
49876;SDS011;35771;48.978;9.294;2022-11-27T15:51:18;2.20;;;1.70;;
49876;SDS011;35771;48.978;9.294;2022-11-27T15:53:44;2.20;;;1.40;;
49876;SDS011;35771;48.978;9.294;2022-11-27T15:56:12;3.08;;;1.65;;
49876;SDS011;35771;48.978;9.294;2022-11-27T15:58:39;3.80;;;2.28;;
49876;SDS011;35771;48.978;9.294;2022-11-27T16:01:08;4.28;;;1.98;;
49876;SDS011;35771;48.978;9.294;2022-11-27T16:03:35;3.15;;;1.58;;
49876;SDS011;35771;48.978;9.294;2022-11-27T16:06:04;2.58;;;1.55;;
49876;SDS011;35771;48.978;9.294;2022-11-27T16:08:31;3.15;;;1.45;;
49876;SDS011;35771;48.978;9.294;2022-11-27T16:10:59;5.00;;;2.08;;
49876;SDS011;35771;48.978;9.294;2022-11-27T16:13:26;5.07;;;1.95;;
49876;SDS011;35771;48.978;9.294;2022-11-27T16:15:53;5.78;;;2.08;;
49876;SDS011;35771;48.978;9.294;2022-11-27T16:18:21;3.03;;;1.70;;
49876;SDS011;35771;48.978;9.294;2022-11-27T16:20:48;8.02;;;1.75;;
49876;SDS011;35771;48.978;9.294;2022-11-27T16:23:15;5.82;;;1.95;;
49876;SDS011;35771;48.978;9.294;2022-11-27T16:25:41;2.90;;;1.67;;
49876;SDS011;35771;48.978;9.294;2022-11-27T16:28:08;2.67;;;1.73;;
49876;SDS011;35771;48.978;9.294;2022-11-27T16:30:35;4.05;;;1.95;;
49876;SDS011;35771;48.978;9.294;2022-11-27T16:33:02;2.83;;;1.90;;
49876;SDS011;35771;48.978;9.294;2022-11-27T16:35:30;3.72;;;2.25;;
49876;SDS011;35771;48.978;9.294;2022-11-27T16:37:56;2.83;;;2.00;;
49876;SDS011;35771;48.978;9.294;2022-11-27T16:40:23;4.32;;;2.50;;
49876;SDS011;35771;48.978;9.294;2022-11-27T16:42:49;3.88;;;2.15;;
49876;SDS011;35771;48.978;9.294;2022-11-27T16:45:16;5.60;;;2.55;;
49876;SDS011;35771;48.978;9.294;2022-11-27T16:47:43;6.43;;;2.70;;
49876;SDS011;35771;48.978;9.294;2022-11-27T16:50:09;3.83;;;2.33;;
49876;SDS011;35771;48.978;9.294;2022-11-27T16:52:37;4.18;;;2.72;;
49876;SDS011;35771;48.978;9.294;2022-11-27T16:55:04;2.80;;;2.15;;
49876;SDS011;35771;48.978;9.294;2022-11-27T16:57:31;3.70;;;2.25;;
49876;SDS011;35771;48.978;9.294;2022-11-27T16:59:58;3.08;;;1.90;;
49876;SDS011;35771;48.978;9.294;2022-11-27T17:02:24;4.25;;;2.63;;
49876;SDS011;35771;48.978;9.294;2022-11-27T17:04:52;3.88;;;2.38;;
49876;SDS011;35771;48.978;9.294;2022-11-27T17:07:20;4.18;;;1.88;;
49876;SDS011;35771;48.978;9.294;2022-11-27T17:09:47;6.00;;;2.60;;
49876;SDS011;35771;48.978;9.294;2022-11-27T17:12:17;4.10;;;2.60;;
49876;SDS011;35771;48.978;9.294;2022-11-27T17:14:44;3.92;;;2.60;;
49876;SDS011;35771;48.978;9.294;2022-11-27T17:17:11;5.15;;;2.25;;
49876;SDS011;35771;48.978;9.294;2022-11-27T17:19:37;5.22;;;2.38;;
49876;SDS011;35771;48.978;9.294;2022-11-27T17:22:07;5.88;;;2.90;;
49876;SDS011;35771;48.978;9.294;2022-11-27T17:24:34;4.72;;;3.17;;
49876;SDS011;35771;48.978;9.294;2022-11-27T17:27:02;3.42;;;2.38;;
49876;SDS011;35771;48.978;9.294;2022-11-27T17:29:28;4.05;;;2.67;;
49876;SDS011;35771;48.978;9.294;2022-11-27T17:31:55;4.07;;;2.78;;
49876;SDS011;35771;48.978;9.294;2022-11-27T17:34:21;4.60;;;2.55;;
49876;SDS011;35771;48.978;9.294;2022-11-27T17:36:48;5.55;;;3.35;;
49876;SDS011;35771;48.978;9.294;2022-11-27T17:39:17;5.43;;;4.18;;
49876;SDS011;35771;48.978;9.294;2022-11-27T17:41:44;7.80;;;5.35;;
49876;SDS011;35771;48.978;9.294;2022-11-27T17:44:12;4.38;;;3.38;;
49876;SDS011;35771;48.978;9.294;2022-11-27T17:46:39;5.53;;;3.33;;
49876;SDS011;35771;48.978;9.294;2022-11-27T17:49:09;7.18;;;3.03;;
49876;SDS011;35771;48.978;9.294;2022-11-27T17:51:35;6.63;;;3.72;;
49876;SDS011;35771;48.978;9.294;2022-11-27T17:54:02;5.95;;;3.30;;
49876;SDS011;35771;48.978;9.294;2022-11-27T17:56:30;9.25;;;3.80;;
49876;SDS011;35771;48.978;9.294;2022-11-27T17:58:57;6.70;;;3.92;;
49876;SDS011;35771;48.978;9.294;2022-11-27T18:01:26;5.72;;;4.00;;
49876;SDS011;35771;48.978;9.294;2022-11-27T18:03:54;7.05;;;4.00;;
49876;SDS011;35771;48.978;9.294;2022-11-27T18:06:23;6.90;;;3.97;;
49876;SDS011;35771;48.978;9.294;2022-11-27T18:08:50;7.72;;;3.83;;
49876;SDS011;35771;48.978;9.294;2022-11-27T18:11:19;6.93;;;3.85;;
49876;SDS011;35771;48.978;9.294;2022-11-27T18:13:47;8.05;;;3.88;;
49876;SDS011;35771;48.978;9.294;2022-11-27T18:16:14;5.28;;;3.38;;
49876;SDS011;35771;48.978;9.294;2022-11-27T18:18:44;8.38;;;4.10;;
49876;SDS011;35771;48.978;9.294;2022-11-27T18:21:11;7.38;;;4.05;;
49876;SDS011;35771;48.978;9.294;2022-11-27T18:23:39;7.95;;;3.95;;
49876;SDS011;35771;48.978;9.294;2022-11-27T18:26:07;7.78;;;4.60;;
49876;SDS011;35771;48.978;9.294;2022-11-27T18:28:35;6.13;;;3.88;;
49876;SDS011;35771;48.978;9.294;2022-11-27T18:31:03;7.72;;;4.10;;
49876;SDS011;35771;48.978;9.294;2022-11-27T18:33:30;8.13;;;5.32;;
49876;SDS011;35771;48.978;9.294;2022-11-27T18:35:58;10.93;;;4.88;;
49876;SDS011;35771;48.978;9.294;2022-11-27T18:38:25;8.10;;;4.32;;
49876;SDS011;35771;48.978;9.294;2022-11-27T18:40:51;8.88;;;4.72;;
49876;SDS011;35771;48.978;9.294;2022-11-27T18:43:18;9.00;;;4.00;;
49876;SDS011;35771;48.978;9.294;2022-11-27T18:45:44;13.00;;;6.00;;
49876;SDS011;35771;48.978;9.294;2022-11-27T18:48:11;8.57;;;5.00;;
49876;SDS011;35771;48.978;9.294;2022-11-27T18:50:51;7.38;;;4.35;;
49876;SDS011;35771;48.978;9.294;2022-11-27T18:53:30;7.13;;;4.28;;
49876;SDS011;35771;48.978;9.294;2022-11-27T18:56:01;7.80;;;4.28;;
49876;SDS011;35771;48.978;9.294;2022-11-27T18:58:30;7.20;;;4.22;;
49876;SDS011;35771;48.978;9.294;2022-11-27T19:00:59;9.30;;;4.32;;
49876;SDS011;35771;48.978;9.294;2022-11-27T19:03:26;9.45;;;5.05;;
49876;SDS011;35771;48.978;9.294;2022-11-27T19:05:53;8.27;;;4.28;;
49876;SDS011;35771;48.978;9.294;2022-11-27T19:08:19;7.93;;;4.78;;
49876;SDS011;35771;48.978;9.294;2022-11-27T19:10:47;7.95;;;4.95;;
49876;SDS011;35771;48.978;9.294;2022-11-27T19:13:14;8.88;;;5.30;;
49876;SDS011;35771;48.978;9.294;2022-11-27T19:15:40;11.82;;;6.40;;
49876;SDS011;35771;48.978;9.294;2022-11-27T19:18:07;13.00;;;6.60;;
49876;SDS011;35771;48.978;9.294;2022-11-27T19:20:34;12.52;;;6.50;;
49876;SDS011;35771;48.978;9.294;2022-11-27T19:23:01;10.63;;;5.72;;
49876;SDS011;35771;48.978;9.294;2022-11-27T19:25:28;12.32;;;7.07;;
49876;SDS011;35771;48.978;9.294;2022-11-27T19:27:58;10.10;;;6.30;;
49876;SDS011;35771;48.978;9.294;2022-11-27T19:30:27;12.38;;;6.57;;
49876;SDS011;35771;48.978;9.294;2022-11-27T19:32:53;11.00;;;6.13;;
49876;SDS011;35771;48.978;9.294;2022-11-27T19:35:20;11.25;;;6.20;;
49876;SDS011;35771;48.978;9.294;2022-11-27T19:37:49;9.50;;;5.80;;
49876;SDS011;35771;48.978;9.294;2022-11-27T19:40:16;8.43;;;5.38;;
49876;SDS011;35771;48.978;9.294;2022-11-27T19:42:42;10.63;;;5.32;;
49876;SDS011;35771;48.978;9.294;2022-11-27T19:45:11;10.73;;;5.55;;
49876;SDS011;35771;48.978;9.294;2022-11-27T19:47:37;7.47;;;4.97;;
49876;SDS011;35771;48.978;9.294;2022-11-27T19:50:04;10.10;;;4.63;;
49876;SDS011;35771;48.978;9.294;2022-11-27T19:52:32;8.70;;;5.05;;
49876;SDS011;35771;48.978;9.294;2022-11-27T19:54:59;9.35;;;4.93;;
49876;SDS011;35771;48.978;9.294;2022-11-27T19:57:26;7.35;;;4.55;;
49876;SDS011;35771;48.978;9.294;2022-11-27T19:59:53;6.88;;;4.20;;
49876;SDS011;35771;48.978;9.294;2022-11-27T20:02:21;8.07;;;4.40;;
49876;SDS011;35771;48.978;9.294;2022-11-27T20:04:47;9.20;;;4.82;;
49876;SDS011;35771;48.978;9.294;2022-11-27T20:07:14;16.73;;;6.82;;
49876;SDS011;35771;48.978;9.294;2022-11-27T20:09:41;10.30;;;5.22;;
49876;SDS011;35771;48.978;9.294;2022-11-27T20:12:07;9.90;;;5.70;;
49876;SDS011;35771;48.978;9.294;2022-11-27T20:14:34;8.60;;;4.70;;
49876;SDS011;35771;48.978;9.294;2022-11-27T20:17:00;9.35;;;4.57;;
49876;SDS011;35771;48.978;9.294;2022-11-27T20:19:28;13.20;;;5.15;;
49876;SDS011;35771;48.978;9.294;2022-11-27T20:21:55;8.85;;;5.18;;
49876;SDS011;35771;48.978;9.294;2022-11-27T20:24:21;9.20;;;4.88;;
49876;SDS011;35771;48.978;9.294;2022-11-27T20:26:48;9.35;;;4.53;;
49876;SDS011;35771;48.978;9.294;2022-11-27T20:29:14;12.98;;;5.68;;
49876;SDS011;35771;48.978;9.294;2022-11-27T20:31:41;9.85;;;5.68;;
49876;SDS011;35771;48.978;9.294;2022-11-27T20:34:09;7.85;;;4.97;;
49876;SDS011;35771;48.978;9.294;2022-11-27T20:36:43;9.73;;;5.63;;
49876;SDS011;35771;48.978;9.294;2022-11-27T20:39:10;12.07;;;5.85;;
49876;SDS011;35771;48.978;9.294;2022-11-27T20:41:36;11.70;;;5.32;;
49876;SDS011;35771;48.978;9.294;2022-11-27T20:44:03;9.23;;;5.65;;
49876;SDS011;35771;48.978;9.294;2022-11-27T20:46:30;9.30;;;5.60;;
49876;SDS011;35771;48.978;9.294;2022-11-27T20:48:58;10.25;;;5.75;;
49876;SDS011;35771;48.978;9.294;2022-11-27T20:51:25;9.48;;;5.28;;
49876;SDS011;35771;48.978;9.294;2022-11-27T20:53:56;6.75;;;4.55;;
49876;SDS011;35771;48.978;9.294;2022-11-27T20:56:24;8.57;;;4.88;;
49876;SDS011;35771;48.978;9.294;2022-11-27T20:58:51;9.98;;;5.05;;
49876;SDS011;35771;48.978;9.294;2022-11-27T21:01:18;9.68;;;4.63;;
49876;SDS011;35771;48.978;9.294;2022-11-27T21:03:46;7.25;;;4.65;;
49876;SDS011;35771;48.978;9.294;2022-11-27T21:06:15;8.32;;;4.05;;
49876;SDS011;35771;48.978;9.294;2022-11-27T21:08:43;8.15;;;4.20;;
49876;SDS011;35771;48.978;9.294;2022-11-27T21:11:13;6.78;;;4.10;;
49876;SDS011;35771;48.978;9.294;2022-11-27T21:13:41;5.53;;;3.38;;
49876;SDS011;35771;48.978;9.294;2022-11-27T21:16:08;5.68;;;3.28;;
49876;SDS011;35771;48.978;9.294;2022-11-27T21:18:35;7.13;;;4.00;;
49876;SDS011;35771;48.978;9.294;2022-11-27T21:21:06;7.95;;;4.30;;
49876;SDS011;35771;48.978;9.294;2022-11-27T21:23:35;8.10;;;3.92;;
49876;SDS011;35771;48.978;9.294;2022-11-27T21:26:02;8.02;;;4.22;;
49876;SDS011;35771;48.978;9.294;2022-11-27T21:28:31;5.22;;;3.70;;
49876;SDS011;35771;48.978;9.294;2022-11-27T21:31:05;6.67;;;3.70;;
49876;SDS011;35771;48.978;9.294;2022-11-27T21:33:32;6.55;;;3.58;;
49876;SDS011;35771;48.978;9.294;2022-11-27T21:35:59;6.22;;;3.58;;
49876;SDS011;35771;48.978;9.294;2022-11-27T21:38:26;8.07;;;3.55;;
49876;SDS011;35771;48.978;9.294;2022-11-27T21:40:53;5.78;;;3.85;;
49876;SDS011;35771;48.978;9.294;2022-11-27T21:43:19;7.82;;;4.25;;
49876;SDS011;35771;48.978;9.294;2022-11-27T21:45:48;7.38;;;3.85;;
49876;SDS011;35771;48.978;9.294;2022-11-27T21:48:14;8.98;;;4.00;;
49876;SDS011;35771;48.978;9.294;2022-11-27T21:50:41;5.32;;;3.55;;
49876;SDS011;35771;48.978;9.294;2022-11-27T21:53:08;7.15;;;3.60;;
49876;SDS011;35771;48.978;9.294;2022-11-27T21:55:37;4.97;;;3.20;;
49876;SDS011;35771;48.978;9.294;2022-11-27T22:00:31;7.25;;;3.92;;
49876;SDS011;35771;48.978;9.294;2022-11-27T22:02:59;6.10;;;3.65;;
49876;SDS011;35771;48.978;9.294;2022-11-27T22:05:26;5.20;;;3.88;;
49876;SDS011;35771;48.978;9.294;2022-11-27T22:07:53;5.07;;;3.38;;
49876;SDS011;35771;48.978;9.294;2022-11-27T22:10:19;5.57;;;3.20;;
49876;SDS011;35771;48.978;9.294;2022-11-27T22:12:46;7.50;;;4.20;;
49876;SDS011;35771;48.978;9.294;2022-11-27T22:15:13;7.70;;;4.45;;
49876;SDS011;35771;48.978;9.294;2022-11-27T22:17:39;4.32;;;2.80;;
49876;SDS011;35771;48.978;9.294;2022-11-27T22:20:08;5.45;;;3.50;;